Overview Statistics Trail Chart Weather Telemetry Raw packets
 

This is the latest recevied weather packets stored in our database for station/object I8ZSE-10. If no packets are shown the sender has not sent any weather packets the latest 10 day(s).

<< 30 31 32 33 34 35 36 >>
Time Temp. Humidity Pressure Rain* Wind** Luminosity Snow
1788192930 30.56° C 45% - 0 mm - - -
1788192330 30.56° C 44% - 0 mm - - -
1788191731 31.11° C 44% - 0 mm - - -
1788191137 30° C 45% - 0 mm - - -
1788190530 30.56° C 43% - 0 mm - - -
1788189930 30° C 43% - 0 mm - - -
1788189330 30° C 43% - 0 mm - - -
1788188730 27.78° C 46% - 0 mm - - -
1788188130 30° C 42% - 0 mm - - -
1788187530 28.33° C 47% - 0 mm - - -
1788186930 25.56° C 58% - 0 mm - - -
1788186330 25.56° C 55% - 0 mm - - -
1788185732 27.78° C 41% - 0 mm - - -
1788185130 27.78° C 47% - 0 mm - - -
1788184530 31.11° C 40% - 0 mm - - -
1788183930 31.67° C 39% - 0 mm - - -
1788183330 33.33° C 36% - 0 mm - - -
1788182730 33.33° C 36% - 0 mm - - -
1788182130 33.33° C 36% - 0 mm - - -
1788181530 33.33° C 35% - 0 mm - - -
1788180930 33.33° C 35% - 0 mm - - -
1788180330 33.33° C 35% - 0 mm - - -
1788179730 33.33° C 34% - 0 mm - - -
1788179130 32.78° C 34% - 0 mm - - -
1788178530 32.78° C 34% - 0 mm - - -

* Rain latest hour (hover to see other rain measurements)
** Current wind speed in m/s (hover to see current wind gust speed)